createdAt,value
2023-02-23T00:02:11.182Z,97932.05
2023-02-23T00:04:39.080Z,97930.48
2023-02-23T00:07:07.069Z,97929.80
2023-02-23T00:09:37.956Z,97927.14
2023-02-23T00:12:09.973Z,97927.37
2023-02-23T00:14:38.538Z,97928.81
2023-02-23T00:17:14.853Z,97929.89
2023-02-23T00:19:46.283Z,97926.59
2023-02-23T00:22:14.244Z,97925.71
2023-02-23T00:24:47.471Z,97922.50
2023-02-23T00:27:19.211Z,97919.67
2023-02-23T00:29:49.744Z,97920.19
2023-02-23T00:32:21.795Z,97920.45
2023-02-23T00:34:52.465Z,97918.91
2023-02-23T00:41:35.235Z,97927.27
2023-02-23T00:44:03.527Z,97929.45
2023-02-23T00:46:31.477Z,97930.89
2023-02-23T00:49:00.285Z,97927.58
2023-02-23T00:51:32.058Z,97926.70
2023-02-23T00:54:00.676Z,97927.79
2023-02-23T00:56:28.662Z,97923.16
2023-02-23T00:58:56.918Z,97924.39
2023-02-23T01:01:27.668Z,97924.08
2023-02-23T01:03:55.691Z,97924.02
2023-02-23T01:06:24.398Z,97915.34
2023-02-23T01:08:57.177Z,97917.92
2023-02-23T01:11:33.650Z,97917.31
2023-02-23T01:14:02.367Z,97916.73
2023-02-23T01:16:32.863Z,97920.80
2023-02-23T01:19:03.958Z,97915.41
2023-02-23T01:21:35.135Z,97915.89
2023-02-23T01:24:04.421Z,97914.72
2023-02-23T01:26:38.144Z,97919.00
2023-02-23T01:29:08.944Z,97911.85
2023-02-23T01:31:40.278Z,97913.59
2023-02-23T01:34:12.071Z,97914.13
2023-02-23T01:36:41.770Z,97909.35
2023-02-23T01:39:14.484Z,97903.33
2023-02-23T01:41:43.415Z,97897.66
2023-02-23T01:44:14.286Z,97895.60
2023-02-23T01:46:46.712Z,97895.91
2023-02-23T01:49:21.659Z,97894.15
2023-02-23T01:51:58.846Z,97890.58
2023-02-23T01:54:31.494Z,97891.52
2023-02-23T01:57:03.178Z,97885.26
2023-02-23T01:59:41.435Z,97883.60
2023-02-23T02:02:09.601Z,97884.67
2023-02-23T02:04:46.071Z,97885.28
2023-02-23T02:07:21.569Z,97885.98
2023-02-23T02:10:10.972Z,97883.16
2023-02-23T02:12:45.223Z,97879.09
2023-02-23T02:15:17.811Z,97876.86
2023-02-23T02:18:09.382Z,97871.78
2023-02-23T02:20:50.571Z,97867.73
2023-02-23T02:23:48.960Z,97865.21
2023-02-23T02:26:46.246Z,97863.27
2023-02-23T02:29:44.943Z,97859.67
2023-02-23T02:32:22.011Z,97856.54
2023-02-23T02:35:00.505Z,97862.88
2023-02-23T02:37:50.860Z,97861.60
2023-02-23T02:40:37.811Z,97857.69
2023-02-23T02:43:23.011Z,97854.20
2023-02-23T02:45:57.220Z,97855.13
2023-02-23T02:48:46.456Z,97855.29
2023-02-23T02:51:42.586Z,97855.19
2023-02-23T02:54:30.412Z,97851.96
2023-02-23T02:57:02.115Z,97849.92
2023-02-23T02:59:49.142Z,97849.23
2023-02-23T03:02:39.167Z,97845.27
2023-02-23T03:05:40.234Z,97845.19
2023-02-23T03:08:49.959Z,97848.89
2023-02-23T03:11:37.244Z,97848.63
2023-02-23T03:14:51.830Z,97850.29
2023-02-23T03:17:56.427Z,97850.30
2023-02-23T03:21:08.933Z,97846.93
2023-02-23T03:23:59.311Z,97851.05
2023-02-23T03:26:55.833Z,97847.88
2023-02-23T03:29:57.368Z,97847.17
2023-02-23T03:32:50.342Z,97847.46
2023-02-23T03:35:47.912Z,97848.54
2023-02-23T03:38:44.869Z,97843.08
2023-02-23T03:41:33.476Z,97847.29
2023-02-23T03:44:25.888Z,97846.03
2023-02-23T03:47:13.379Z,97845.60
2023-02-23T03:50:01.920Z,97844.83
2023-02-23T03:52:54.904Z,97843.04
2023-02-23T03:55:46.524Z,97844.51
2023-02-23T03:58:36.964Z,97845.63
2023-02-23T04:01:27.302Z,97845.92
2023-02-23T04:04:16.113Z,97850.16
2023-02-23T04:07:05.485Z,97850.05
2023-02-23T04:09:52.444Z,97849.94
2023-02-23T04:12:41.451Z,97851.95
2023-02-23T04:15:27.836Z,97848.80
2023-02-23T04:17:56.272Z,97844.73
2023-02-23T04:20:27.092Z,97848.68
2023-02-23T04:22:55.055Z,97844.77
2023-02-23T04:25:23.073Z,97847.34
2023-02-23T04:27:51.217Z,97843.23
2023-02-23T04:30:20.735Z,97846.42
2023-02-23T04:32:48.880Z,97840.23
2023-02-23T04:35:16.820Z,97841.23
2023-02-23T04:37:44.706Z,97836.73
2023-02-23T04:40:13.238Z,97835.33
2023-02-23T04:42:41.860Z,97837.33
2023-02-23T04:45:10.731Z,97833.83
2023-02-23T04:47:38.660Z,97836.59
2023-02-23T04:50:07.036Z,97837.83
2023-02-23T04:52:35.189Z,97832.48
2023-02-23T04:55:04.366Z,97833.48
2023-02-23T04:57:32.358Z,97831.95
2023-02-23T05:00:00.282Z,97831.27
2023-02-23T05:02:28.236Z,97828.71
2023-02-23T05:04:56.423Z,97828.14
2023-02-23T05:07:24.643Z,97825.78
2023-02-23T05:09:52.815Z,97828.52
2023-02-23T05:12:21.026Z,97828.06
2023-02-23T05:14:49.222Z,97826.86
2023-02-23T05:17:17.174Z,97833.02
2023-02-23T05:19:45.126Z,97829.55
2023-02-23T05:22:13.305Z,97822.39
2023-02-23T05:24:42.113Z,97827.37
2023-02-23T05:27:11.405Z,97827.96
2023-02-23T05:29:39.761Z,97829.00
2023-02-23T05:32:08.264Z,97826.88
2023-02-23T05:34:37.518Z,97833.04
2023-02-23T05:37:05.868Z,97828.77
2023-02-23T05:39:33.822Z,97830.09
2023-02-23T05:42:01.886Z,97829.13
2023-02-23T05:44:29.935Z,97833.53
2023-02-23T05:46:57.872Z,97830.38
2023-02-23T05:49:25.815Z,97830.15
2023-02-23T05:51:53.750Z,97833.95
2023-02-23T05:54:21.828Z,97834.35
2023-02-23T05:56:50.089Z,97834.88
2023-02-23T05:59:18.211Z,97840.62
2023-02-23T06:01:46.533Z,97839.41
2023-02-23T06:04:14.589Z,97839.85
2023-02-23T06:06:42.518Z,97840.38
2023-02-23T06:09:10.432Z,97839.30
2023-02-23T06:11:38.344Z,97842.05
2023-02-23T06:14:06.251Z,97839.14
2023-02-23T06:16:34.396Z,97847.52
2023-02-23T06:19:02.442Z,97846.28
2023-02-23T06:21:31.043Z,97848.23
2023-02-23T06:24:00.794Z,97850.33
2023-02-23T06:26:29.307Z,97852.64
2023-02-23T06:28:57.284Z,97852.31
2023-02-23T06:31:25.395Z,97854.45
2023-02-23T06:33:53.342Z,97859.51
2023-02-23T06:36:21.928Z,97860.06
2023-02-23T06:38:50.097Z,97857.95
2023-02-23T06:41:18.309Z,97860.48
2023-02-23T06:43:46.348Z,97860.41
2023-02-23T06:46:14.222Z,97861.39
2023-02-23T06:48:42.103Z,97858.33
2023-02-23T06:51:10.074Z,97863.93
2023-02-23T06:53:38.100Z,97858.55
2023-02-23T06:56:06.506Z,97859.79
2023-02-23T06:58:34.384Z,97861.48
2023-02-23T07:01:02.504Z,97860.63
2023-02-23T07:03:30.367Z,97860.41
2023-02-23T07:05:58.357Z,97862.18
2023-02-23T07:08:26.531Z,97861.05
2023-02-23T07:10:54.490Z,97857.55
2023-02-23T07:13:22.456Z,97858.45
2023-02-23T07:15:50.952Z,97860.73
2023-02-23T07:18:19.291Z,97859.95
2023-02-23T07:20:47.226Z,97861.94
2023-02-23T07:23:15.262Z,97860.72
2023-02-23T07:25:43.186Z,97863.80
2023-02-23T07:28:14.302Z,97864.84
2023-02-23T07:30:42.656Z,97866.94
2023-02-23T07:33:12.109Z,97863.90
2023-02-23T07:35:40.173Z,97866.14
2023-02-23T07:38:08.240Z,97864.27
2023-02-23T07:40:36.162Z,97862.60
2023-02-23T07:43:04.135Z,97865.13
2023-02-23T07:45:32.242Z,97862.02
2023-02-23T07:48:00.944Z,97863.75
2023-02-23T07:50:28.943Z,97864.13
2023-02-23T07:52:57.090Z,97865.34
2023-02-23T07:55:24.993Z,97862.70
2023-02-23T07:57:53.336Z,97860.43
2023-02-23T08:00:21.766Z,97860.88
2023-02-23T08:02:49.716Z,97859.45
2023-02-23T08:05:18.208Z,97857.81
2023-02-23T08:07:46.477Z,97862.63
2023-02-23T08:10:14.520Z,97865.88
2023-02-23T08:12:42.673Z,97860.08
2023-02-23T08:15:11.171Z,97864.63
2023-02-23T08:17:39.633Z,97862.95
2023-02-23T08:20:08.982Z,97864.79
2023-02-23T08:22:48.542Z,97860.48
2023-02-23T08:25:18.423Z,97858.36
2023-02-23T08:27:47.136Z,97860.80
2023-02-23T08:30:15.589Z,97857.73
2023-02-23T08:32:43.567Z,97866.36
2023-02-23T08:35:12.088Z,97866.58
2023-02-23T08:37:41.993Z,97867.02
2023-02-23T08:40:12.287Z,97869.96
2023-02-23T08:42:40.254Z,97867.23
2023-02-23T08:45:13.468Z,97870.41
2023-02-23T08:47:42.181Z,97865.75
2023-02-23T08:50:11.807Z,97864.95
2023-02-23T08:52:40.513Z,97859.61
2023-02-23T08:55:11.727Z,97863.77
2023-02-23T08:57:39.776Z,97862.81
2023-02-23T09:00:14.279Z,97859.13
2023-02-23T09:02:44.317Z,97858.66
2023-02-23T09:05:12.809Z,97855.08
2023-02-23T09:07:45.072Z,97857.60
2023-02-23T09:10:25.051Z,97851.86
2023-02-23T09:12:53.316Z,97848.79
2023-02-23T09:15:22.251Z,97846.48
2023-02-23T09:17:50.436Z,97848.59
2023-02-23T09:20:18.758Z,97846.64
2023-02-23T09:22:49.729Z,97851.09
2023-02-23T09:25:22.912Z,97854.14
2023-02-23T09:27:57.120Z,97850.92
2023-02-23T09:30:26.536Z,97853.23
2023-02-23T09:32:55.952Z,97855.16
2023-02-23T09:35:25.289Z,97856.25
2023-02-23T09:37:56.083Z,97853.89
2023-02-23T09:40:28.208Z,97853.23
2023-02-23T09:43:05.181Z,97852.85
2023-02-23T09:45:33.109Z,97846.73
2023-02-23T09:48:04.046Z,97843.12
2023-02-23T09:50:34.994Z,97837.87
2023-02-23T09:53:06.734Z,97838.98
2023-02-23T09:55:35.564Z,97831.58
2023-02-23T09:58:16.936Z,97832.83
2023-02-23T10:00:50.474Z,97829.15
2023-02-23T10:03:28.261Z,97831.99
2023-02-23T10:06:01.752Z,97831.80
2023-02-23T10:08:58.702Z,97834.48
2023-02-23T10:11:47.900Z,97835.04
2023-02-23T10:15:06.725Z,97839.68
2023-02-23T10:18:17.806Z,97843.90
2023-02-23T10:21:31.966Z,97840.74
2023-02-23T10:25:06.803Z,97846.47
2023-02-23T10:28:21.980Z,97842.27
2023-02-23T10:30:50.622Z,97843.24
2023-02-23T10:33:36.333Z,97841.13
2023-02-23T10:36:31.374Z,97842.54
2023-02-23T10:38:59.677Z,97833.23
2023-02-23T10:41:27.746Z,97824.79
2023-02-23T10:43:57.122Z,97823.65
2023-02-23T10:46:35.921Z,97818.35
2023-02-23T10:49:04.758Z,97814.64
2023-02-23T10:51:37.978Z,97813.06
2023-02-23T10:54:44.835Z,97812.54
2023-02-23T10:57:34.061Z,97808.45
2023-02-23T11:00:20.407Z,97805.91
2023-02-23T11:02:48.893Z,97799.70
2023-02-23T11:05:33.868Z,97796.81
2023-02-23T11:08:21.177Z,97792.66
2023-02-23T11:11:17.472Z,97789.26
2023-02-23T11:13:50.549Z,97786.13
2023-02-23T11:16:38.013Z,97785.48
2023-02-23T11:19:19.741Z,97779.06
2023-02-23T11:21:52.039Z,97780.75
2023-02-23T11:24:30.812Z,97784.46
2023-02-23T11:27:06.870Z,97780.71
2023-02-23T11:29:39.541Z,97779.80
2023-02-23T11:32:15.434Z,97780.72
2023-02-23T11:34:43.974Z,97776.27
2023-02-23T11:37:15.330Z,97774.93
2023-02-23T11:39:57.949Z,97767.88
2023-02-23T11:42:33.409Z,97768.34
2023-02-23T11:45:03.485Z,97762.26
2023-02-23T11:47:35.242Z,97761.66
2023-02-23T11:50:05.025Z,97761.15
2023-02-23T11:52:36.542Z,97763.35
2023-02-23T11:55:16.297Z,97765.45
2023-02-23T11:57:44.252Z,97762.36
2023-02-23T12:04:39.287Z,97757.68
2023-02-23T12:07:31.536Z,97756.54
2023-02-23T12:10:11.588Z,97751.99
2023-02-23T12:13:08.586Z,97749.27
2023-02-23T12:16:05.547Z,97751.53
2023-02-23T12:18:56.880Z,97748.46
2023-02-23T12:21:33.329Z,97744.69
2023-02-23T12:24:15.013Z,97742.31
2023-02-23T12:26:51.795Z,97737.79
2023-02-23T12:29:36.611Z,97735.88
2023-02-23T12:32:37.364Z,97735.80
2023-02-23T12:35:14.942Z,97732.45
2023-02-23T12:38:01.306Z,97730.99
2023-02-23T12:40:34.583Z,97725.81
2023-02-23T12:43:12.108Z,97721.93
2023-02-23T12:45:49.235Z,97718.13
2023-02-23T12:48:32.283Z,97714.43
2023-02-23T12:51:04.671Z,97711.98
2023-02-23T12:53:45.151Z,97705.64
2023-02-23T12:56:21.403Z,97703.27
2023-02-23T12:59:08.679Z,97702.23
2023-02-23T13:01:46.066Z,97700.91
2023-02-23T13:04:25.879Z,97694.98
2023-02-23T13:06:59.542Z,97689.55
2023-02-23T13:09:55.756Z,97687.66
2023-02-23T13:12:42.314Z,97683.27
2023-02-23T13:15:22.288Z,97678.55
2023-02-23T13:17:56.879Z,97679.65
2023-02-23T13:20:37.456Z,97680.64
2023-02-23T13:23:23.588Z,97675.24
2023-02-23T13:26:10.775Z,97674.55
2023-02-23T13:28:44.835Z,97676.39
2023-02-23T13:31:33.655Z,97674.39
2023-02-23T13:34:05.067Z,97671.27
2023-02-23T13:36:34.849Z,97671.45
2023-02-23T13:39:29.174Z,97663.75
2023-02-23T13:42:19.923Z,97656.81
2023-02-23T13:44:57.131Z,97652.34
2023-02-23T13:47:34.967Z,97657.39
2023-02-23T13:50:46.723Z,97650.18
2023-02-23T13:53:39.669Z,97647.27
2023-02-23T13:56:19.757Z,97644.83
2023-02-23T13:59:09.941Z,97643.44
2023-02-23T14:01:40.707Z,97635.92
2023-02-23T14:04:16.075Z,97631.50
2023-02-23T14:06:53.995Z,97628.86
2023-02-23T14:09:54.029Z,97625.41
2023-02-23T14:12:32.841Z,97621.61
2023-02-23T14:15:25.701Z,97623.60
2023-02-23T14:17:59.188Z,97617.92
2023-02-23T14:20:46.403Z,97618.44
2023-02-23T14:23:20.390Z,97618.88
2023-02-23T14:25:52.434Z,97618.20
2023-02-23T14:28:30.853Z,97624.11
2023-02-23T14:31:13.840Z,97616.70
2023-02-23T14:33:41.934Z,97618.67
2023-02-23T14:36:21.734Z,97613.73
2023-02-23T14:39:02.386Z,97615.84
2023-02-23T14:41:51.880Z,97610.66
2023-02-23T14:44:36.588Z,97609.41
2023-02-23T14:47:08.723Z,97614.54
2023-02-23T14:49:49.008Z,97608.38
2023-02-23T14:52:46.488Z,97603.59
2023-02-23T14:55:25.649Z,97603.46
2023-02-23T14:57:54.752Z,97603.18
2023-02-23T15:00:34.182Z,97600.08
2023-02-23T15:03:12.505Z,97598.66
2023-02-23T15:05:52.702Z,97595.34
2023-02-23T15:08:23.963Z,97592.05
2023-02-23T15:11:11.047Z,97589.32
2023-02-23T15:13:42.729Z,97584.27
2023-02-23T15:16:26.991Z,97573.38
2023-02-23T15:18:55.531Z,97572.05
2023-02-23T15:21:24.187Z,97569.36
2023-02-23T15:24:03.188Z,97564.42
2023-02-23T15:26:35.880Z,97567.16
2023-02-23T15:29:10.212Z,97565.21
2023-02-23T15:31:41.219Z,97563.76
2023-02-23T15:34:12.467Z,97564.56
2023-02-23T15:36:41.436Z,97560.89
2023-02-23T15:39:17.560Z,97556.98
2023-02-23T15:41:49.034Z,97556.65
2023-02-23T15:44:42.390Z,97555.59
2023-02-23T15:47:22.580Z,97558.11
2023-02-23T15:49:50.655Z,97560.97
2023-02-23T15:52:24.937Z,97557.75
2023-02-23T15:55:00.394Z,97558.10
2023-02-23T15:57:47.289Z,97554.66
2023-02-23T16:00:27.318Z,97548.15
2023-02-23T16:02:57.185Z,97550.93
2023-02-23T16:05:25.884Z,97548.29
2023-02-23T16:08:23.055Z,97550.47
2023-02-23T16:11:00.774Z,97549.78
2023-02-23T16:13:28.998Z,97547.13
2023-02-23T16:15:57.614Z,97548.23
2023-02-23T16:18:39.436Z,97546.78
2023-02-23T16:21:14.619Z,97547.67
2023-02-23T16:23:47.887Z,97547.52
2023-02-23T16:26:41.827Z,97545.92
2023-02-23T16:29:18.638Z,97546.09
2023-02-23T16:31:58.181Z,97542.85
2023-02-23T16:34:30.236Z,97546.09
2023-02-23T16:37:00.391Z,97544.65
2023-02-23T16:39:31.234Z,97545.30
2023-02-23T16:42:00.166Z,97543.83
2023-02-23T16:44:37.767Z,97544.85
2023-02-23T16:47:27.629Z,97544.67
2023-02-23T16:49:55.571Z,97540.96
2023-02-23T16:52:24.390Z,97539.46
2023-02-23T16:54:55.674Z,97539.23
2023-02-23T16:57:27.435Z,97537.90
2023-02-23T16:59:57.612Z,97533.27
2023-02-23T17:02:25.872Z,97535.41
2023-02-23T17:04:58.916Z,97535.76
2023-02-23T17:07:26.918Z,97532.30
2023-02-23T17:09:55.050Z,97535.41
2023-02-23T17:12:22.972Z,97535.27
2023-02-23T17:14:55.237Z,97534.98
2023-02-23T17:17:23.122Z,97537.71
2023-02-23T17:19:51.482Z,97539.16
2023-02-23T17:22:19.386Z,97540.39
2023-02-23T17:24:47.383Z,97534.68
2023-02-23T17:27:15.282Z,97533.45
2023-02-23T17:29:43.323Z,97538.64
2023-02-23T17:32:11.401Z,97537.13
2023-02-23T17:34:39.591Z,97532.88
2023-02-23T17:37:08.060Z,97532.49
2023-02-23T17:39:37.499Z,97535.87
2023-02-23T17:42:06.698Z,97530.92
2023-02-23T17:44:34.696Z,97528.46
2023-02-23T17:47:02.690Z,97530.00
2023-02-23T17:49:31.864Z,97525.96
2023-02-23T17:51:59.819Z,97524.42
2023-02-23T17:54:28.228Z,97525.66
2023-02-23T17:56:56.469Z,97520.62
2023-02-23T17:59:24.792Z,97515.64
2023-02-23T18:01:53.279Z,97519.38
2023-02-23T18:04:21.370Z,97513.77
2023-02-23T18:06:49.300Z,97511.84
2023-02-23T18:09:17.197Z,97511.23
2023-02-23T18:11:46.083Z,97513.89
2023-02-23T18:14:14.796Z,97510.21
2023-02-23T18:16:42.829Z,97510.13
2023-02-23T18:19:10.750Z,97508.77
2023-02-23T18:21:41.003Z,97509.48
2023-02-23T18:24:08.976Z,97503.52
2023-02-23T18:26:37.642Z,97504.26
2023-02-23T18:29:06.455Z,97501.09
2023-02-23T18:31:35.030Z,97501.45
2023-02-23T18:34:03.214Z,97496.21
2023-02-23T18:36:53.626Z,97494.65
2023-02-23T18:40:24.007Z,97493.83
2023-02-23T18:42:52.161Z,97494.79
2023-02-23T18:45:20.157Z,97489.86
2023-02-23T18:47:48.128Z,97487.70
2023-02-23T18:50:19.397Z,97482.54
2023-02-23T18:52:50.878Z,97481.15
2023-02-23T18:55:20.232Z,97484.96
2023-02-23T18:57:49.457Z,97481.84
2023-02-23T19:00:18.342Z,97483.09
2023-02-23T19:02:46.698Z,97483.34
2023-02-23T19:05:18.495Z,97477.39
2023-02-23T19:07:48.058Z,97477.67
2023-02-23T19:10:16.473Z,97474.39
2023-02-23T19:12:44.569Z,97472.36
2023-02-23T19:15:12.738Z,97468.73
2023-02-23T19:17:40.802Z,97472.48
2023-02-23T19:20:13.309Z,97466.92
2023-02-23T19:22:41.826Z,97469.67
2023-02-23T19:25:14.742Z,97470.75
2023-02-23T19:27:43.428Z,97472.72
2023-02-23T19:30:12.307Z,97471.77
2023-02-23T19:37:04.557Z,97472.79
2023-02-23T19:39:33.102Z,97473.67
2023-02-23T19:42:01.036Z,97468.70
2023-02-23T19:44:29.893Z,97465.14
2023-02-23T19:46:57.815Z,97467.02
2023-02-23T19:49:25.953Z,97463.72
2023-02-23T19:51:54.013Z,97466.58
2023-02-23T19:54:22.020Z,97464.08
2023-02-23T19:56:50.027Z,97459.55
2023-02-23T19:59:18.373Z,97460.83
2023-02-23T20:01:46.770Z,97461.16
2023-02-23T20:04:14.759Z,97464.25
2023-02-23T20:06:44.991Z,97460.14
2023-02-23T20:09:14.073Z,97455.69
2023-02-23T20:11:42.706Z,97455.30
2023-02-23T20:14:12.599Z,97455.02
2023-02-23T20:16:41.031Z,97456.04
2023-02-23T20:19:09.344Z,97452.24
2023-02-23T20:21:37.797Z,97451.73
2023-02-23T20:24:06.015Z,97452.66
2023-02-23T20:26:37.142Z,97452.22
2023-02-23T20:29:10.961Z,97452.63
2023-02-23T20:31:42.049Z,97447.92
2023-02-23T20:34:11.277Z,97444.54
2023-02-23T20:36:40.162Z,97439.70
2023-02-23T20:39:10.419Z,97440.26
2023-02-23T20:41:43.477Z,97432.64
2023-02-23T20:44:14.290Z,97430.52
2023-02-23T20:46:44.778Z,97427.30
2023-02-23T20:49:14.034Z,97425.25
2023-02-23T20:51:43.921Z,97423.26
2023-02-23T20:54:13.274Z,97424.40
2023-02-23T20:56:42.730Z,97420.16
2023-02-23T20:59:11.843Z,97415.02
2023-02-23T21:01:41.560Z,97412.58
2023-02-23T21:04:10.448Z,97416.52
2023-02-23T21:06:38.526Z,97417.13
2023-02-23T21:09:12.204Z,97416.64
2023-02-23T21:11:40.250Z,97412.37
2023-02-23T21:14:08.514Z,97409.15
2023-02-23T21:16:40.933Z,97401.91
2023-02-23T21:19:10.932Z,97395.73
2023-02-23T21:21:40.788Z,97396.21
2023-02-23T21:24:09.282Z,97393.54
2023-02-23T21:26:37.264Z,97390.23
2023-02-23T21:29:11.765Z,97387.42
2023-02-23T21:31:40.084Z,97384.48
2023-02-23T21:34:09.149Z,97382.06
2023-02-23T21:36:37.279Z,97382.83
2023-02-23T21:39:06.746Z,97376.87
2023-02-23T21:41:34.952Z,97374.65
2023-02-23T21:44:05.541Z,97369.73
2023-02-23T21:46:36.629Z,97367.98
2023-02-23T21:49:09.722Z,97371.12
2023-02-23T21:51:38.903Z,97366.69
2023-02-23T21:54:06.859Z,97363.56
2023-02-23T21:56:35.095Z,97364.58
2023-02-23T21:59:04.986Z,97365.61
2023-02-23T22:01:35.409Z,97363.20
2023-02-23T22:04:06.999Z,97362.45
2023-02-23T22:06:40.034Z,97362.23
2023-02-23T22:09:12.737Z,97358.98
2023-02-23T22:11:45.169Z,97356.83
2023-02-23T22:14:16.881Z,97354.62
2023-02-23T22:16:45.938Z,97350.60
2023-02-23T22:19:13.937Z,97348.77
2023-02-23T22:21:42.649Z,97345.52
2023-02-23T22:24:12.556Z,97340.06
2023-02-23T22:26:54.177Z,97340.05
2023-02-23T22:29:24.487Z,97340.17
2023-02-23T22:31:52.925Z,97338.27
2023-02-23T22:34:21.286Z,97330.95
2023-02-23T22:36:50.116Z,97328.40
2023-02-23T22:39:18.839Z,97327.08
2023-02-23T22:41:48.076Z,97329.36
2023-02-23T22:44:20.111Z,97325.07
2023-02-23T22:46:48.689Z,97318.00
2023-02-23T22:49:19.927Z,97315.14
2023-02-23T22:51:48.207Z,97316.70
2023-02-23T22:54:17.506Z,97316.29
2023-02-23T22:56:46.959Z,97314.80
2023-02-23T22:59:17.710Z,97316.77
2023-02-23T23:01:47.573Z,97312.74
2023-02-23T23:04:15.719Z,97310.37
2023-02-23T23:06:43.861Z,97308.61
2023-02-23T23:09:12.606Z,97308.55
2023-02-23T23:11:44.443Z,97307.52
2023-02-23T23:14:12.786Z,97303.33
2023-02-23T23:16:48.378Z,97300.38
2023-02-23T23:19:23.924Z,97297.06
2023-02-23T23:21:55.555Z,97295.08
2023-02-23T23:24:24.774Z,97292.48
2023-02-23T23:26:55.648Z,97290.09
2023-02-23T23:29:25.866Z,97286.11
2023-02-23T23:31:57.034Z,97286.88
2023-02-23T23:34:25.499Z,97286.05
2023-02-23T23:36:53.597Z,97284.14
2023-02-23T23:39:23.609Z,97280.17
2023-02-23T23:41:51.508Z,97281.66
2023-02-23T23:44:22.073Z,97277.70
2023-02-23T23:46:53.352Z,97273.45
2023-02-23T23:49:25.600Z,97271.41
2023-02-23T23:51:58.799Z,97274.57
2023-02-23T23:54:31.053Z,97268.67
2023-02-23T23:57:03.760Z,97267.55
2023-02-23T23:59:33.747Z,97265.95
